首页
METAR-TAF:

METAR-TAF

机场 :

Paraburdoo, 澳大利亚

纬度: 23-10-17S, 经度: 117-44-44E, 海拔: 429米

当前天气观测

该预报发布于1小时和0分钟前的23:00 UTC
风速4节,风向北转东北
温度 23°C
湿度 53%
气压 1013 hPa
能见度10公里或以上

METAR: YPBO 072300Z AUTO 03004KT 9999 // NCD 23/13 Q1013

时间: 08:00 (00:00 UTC)


TAF: 丢失

超过4000个机场的气象观测和天气预报(METAR&TAF报告)。

可查询的气象台以黄色和红色小点在地图上表示。

将鼠标移到小点上方,可查看气象台名称。

然后点击查看天气观测和预报。

如需切换地图:点击带黑十字的绿色按钮放大地图;点击带横线的绿色按钮缩小地图;或者点击绿色箭头查看邻近地区的地图。


METAR-TAF: